sensor_id;sensor_type;location;lat;lon;timestamp;temperature;humidity
48019;DHT22;33786;48.690;9.562;2023-10-31T00:00:42;12.00;99.90
48019;DHT22;33786;48.690;9.562;2023-10-31T00:03:09;11.90;99.90
48019;DHT22;33786;48.690;9.562;2023-10-31T00:05:37;11.90;99.90
48019;DHT22;33786;48.690;9.562;2023-10-31T00:08:04;11.90;99.90
48019;DHT22;33786;48.690;9.562;2023-10-31T00:10:31;11.90;99.90
48019;DHT22;33786;48.690;9.562;2023-10-31T00:12:57;11.90;99.90
48019;DHT22;33786;48.690;9.562;2023-10-31T00:15:24;11.90;99.90
48019;DHT22;33786;48.690;9.562;2023-10-31T00:17:51;11.90;99.90
48019;DHT22;33786;48.690;9.562;2023-10-31T00:20:18;11.90;99.90
48019;DHT22;33786;48.690;9.562;2023-10-31T00:22:46;11.90;99.90
48019;DHT22;33786;48.690;9.562;2023-10-31T00:25:13;11.80;99.90
48019;DHT22;33786;48.690;9.562;2023-10-31T00:27:40;11.90;99.90
48019;DHT22;33786;48.690;9.562;2023-10-31T00:30:07;11.90;99.90
48019;DHT22;33786;48.690;9.562;2023-10-31T00:32:33;11.90;99.90
48019;DHT22;33786;48.690;9.562;2023-10-31T00:35:00;11.90;99.90
48019;DHT22;33786;48.690;9.562;2023-10-31T00:37:27;11.90;99.90
48019;DHT22;33786;48.690;9.562;2023-10-31T00:39:54;11.80;99.90
48019;DHT22;33786;48.690;9.562;2023-10-31T00:42:20;11.80;99.90
48019;DHT22;33786;48.690;9.562;2023-10-31T00:44:47;11.80;99.90
48019;DHT22;33786;48.690;9.562;2023-10-31T00:47:14;11.70;99.90
48019;DHT22;33786;48.690;9.562;2023-10-31T00:49:41;11.70;99.90
48019;DHT22;33786;48.690;9.562;2023-10-31T00:52:08;11.60;99.90
48019;DHT22;33786;48.690;9.562;2023-10-31T00:54:35;11.60;99.90
48019;DHT22;33786;48.690;9.562;2023-10-31T00:57:02;11.50;99.90
48019;DHT22;33786;48.690;9.562;2023-10-31T00:59:29;11.40;99.90
48019;DHT22;33786;48.690;9.562;2023-10-31T01:01:56;11.30;99.90
48019;DHT22;33786;48.690;9.562;2023-10-31T01:04:23;11.30;99.90
48019;DHT22;33786;48.690;9.562;2023-10-31T01:06:50;11.30;99.90
48019;DHT22;33786;48.690;9.562;2023-10-31T01:09:17;11.30;99.90
48019;DHT22;33786;48.690;9.562;2023-10-31T01:11:44;11.20;99.90
48019;DHT22;33786;48.690;9.562;2023-10-31T01:14:10;11.20;99.90
48019;DHT22;33786;48.690;9.562;2023-10-31T01:16:37;11.20;99.90
48019;DHT22;33786;48.690;9.562;2023-10-31T01:19:04;11.20;99.90
48019;DHT22;33786;48.690;9.562;2023-10-31T01:21:31;11.20;99.90
48019;DHT22;33786;48.690;9.562;2023-10-31T01:23:58;11.20;99.90
48019;DHT22;33786;48.690;9.562;2023-10-31T01:26:25;11.30;99.90
48019;DHT22;33786;48.690;9.562;2023-10-31T01:28:52;11.40;99.90
48019;DHT22;33786;48.690;9.562;2023-10-31T01:31:18;11.40;99.90
48019;DHT22;33786;48.690;9.562;2023-10-31T01:33:45;11.40;99.90
48019;DHT22;33786;48.690;9.562;2023-10-31T01:36:12;11.40;99.90
48019;DHT22;33786;48.690;9.562;2023-10-31T01:38:40;11.40;99.90
48019;DHT22;33786;48.690;9.562;2023-10-31T01:41:07;11.40;99.90
48019;DHT22;33786;48.690;9.562;2023-10-31T01:43:35;11.40;99.90
48019;DHT22;33786;48.690;9.562;2023-10-31T01:46:02;11.50;99.90
48019;DHT22;33786;48.690;9.562;2023-10-31T01:48:30;11.50;99.90
48019;DHT22;33786;48.690;9.562;2023-10-31T01:50:58;11.60;99.90
48019;DHT22;33786;48.690;9.562;2023-10-31T01:53:25;11.60;99.90
48019;DHT22;33786;48.690;9.562;2023-10-31T01:55:53;11.50;99.90
48019;DHT22;33786;48.690;9.562;2023-10-31T01:58:30;11.50;99.90
48019;DHT22;33786;48.690;9.562;2023-10-31T02:00:57;11.50;99.90
48019;DHT22;33786;48.690;9.562;2023-10-31T02:03:24;11.50;99.90
48019;DHT22;33786;48.690;9.562;2023-10-31T02:05:51;11.50;99.90
48019;DHT22;33786;48.690;9.562;2023-10-31T02:08:18;11.40;99.90
48019;DHT22;33786;48.690;9.562;2023-10-31T02:10:45;11.40;99.90
48019;DHT22;33786;48.690;9.562;2023-10-31T02:13:12;11.30;99.90
48019;DHT22;33786;48.690;9.562;2023-10-31T02:15:39;11.30;99.90
48019;DHT22;33786;48.690;9.562;2023-10-31T02:18:06;11.20;99.90
48019;DHT22;33786;48.690;9.562;2023-10-31T02:20:33;11.20;99.90
48019;DHT22;33786;48.690;9.562;2023-10-31T02:23:00;11.20;99.90
48019;DHT22;33786;48.690;9.562;2023-10-31T02:25:29;11.20;99.90
48019;DHT22;33786;48.690;9.562;2023-10-31T02:27:56;11.20;99.90
48019;DHT22;33786;48.690;9.562;2023-10-31T02:30:23;11.20;99.90
48019;DHT22;33786;48.690;9.562;2023-10-31T02:32:50;11.20;99.90
48019;DHT22;33786;48.690;9.562;2023-10-31T02:35:17;11.20;99.90
48019;DHT22;33786;48.690;9.562;2023-10-31T02:37:45;11.20;99.90
48019;DHT22;33786;48.690;9.562;2023-10-31T02:40:12;11.20;99.90
48019;DHT22;33786;48.690;9.562;2023-10-31T02:42:39;11.20;99.90
48019;DHT22;33786;48.690;9.562;2023-10-31T02:45:06;11.20;99.90
48019;DHT22;33786;48.690;9.562;2023-10-31T02:47:33;11.10;99.90
48019;DHT22;33786;48.690;9.562;2023-10-31T02:49:59;11.00;99.90
48019;DHT22;33786;48.690;9.562;2023-10-31T02:52:26;11.00;99.90
48019;DHT22;33786;48.690;9.562;2023-10-31T02:54:53;11.00;99.90
48019;DHT22;33786;48.690;9.562;2023-10-31T02:57:20;10.90;99.90
48019;DHT22;33786;48.690;9.562;2023-10-31T02:59:47;10.90;99.90
48019;DHT22;33786;48.690;9.562;2023-10-31T03:02:14;10.70;99.90
48019;DHT22;33786;48.690;9.562;2023-10-31T03:04:40;10.60;99.90
48019;DHT22;33786;48.690;9.562;2023-10-31T03:07:07;10.60;99.90
48019;DHT22;33786;48.690;9.562;2023-10-31T03:09:34;10.50;99.90
48019;DHT22;33786;48.690;9.562;2023-10-31T03:12:01;10.50;99.90
48019;DHT22;33786;48.690;9.562;2023-10-31T03:14:27;10.40;99.90
48019;DHT22;33786;48.690;9.562;2023-10-31T03:16:54;10.30;99.90
48019;DHT22;33786;48.690;9.562;2023-10-31T03:19:21;10.30;99.90
48019;DHT22;33786;48.690;9.562;2023-10-31T03:21:48;10.20;99.90
48019;DHT22;33786;48.690;9.562;2023-10-31T03:24:14;10.20;99.90
48019;DHT22;33786;48.690;9.562;2023-10-31T03:26:41;10.30;99.90
48019;DHT22;33786;48.690;9.562;2023-10-31T03:29:08;10.30;99.90
48019;DHT22;33786;48.690;9.562;2023-10-31T03:31:35;10.30;99.90
48019;DHT22;33786;48.690;9.562;2023-10-31T03:34:01;10.30;99.90
48019;DHT22;33786;48.690;9.562;2023-10-31T03:36:28;10.30;99.90
48019;DHT22;33786;48.690;9.562;2023-10-31T03:38:55;10.30;99.90
48019;DHT22;33786;48.690;9.562;2023-10-31T03:41:22;10.30;99.90
48019;DHT22;33786;48.690;9.562;2023-10-31T03:43:48;10.40;99.90
48019;DHT22;33786;48.690;9.562;2023-10-31T03:46:15;10.40;99.90
48019;DHT22;33786;48.690;9.562;2023-10-31T03:48:42;10.30;99.90
48019;DHT22;33786;48.690;9.562;2023-10-31T03:51:09;10.30;99.90
48019;DHT22;33786;48.690;9.562;2023-10-31T03:53:35;10.40;99.90
48019;DHT22;33786;48.690;9.562;2023-10-31T03:56:02;10.40;99.90
48019;DHT22;33786;48.690;9.562;2023-10-31T03:58:29;10.40;99.90
48019;DHT22;33786;48.690;9.562;2023-10-31T04:00:56;10.40;99.90
48019;DHT22;33786;48.690;9.562;2023-10-31T04:03:23;10.40;99.90
48019;DHT22;33786;48.690;9.562;2023-10-31T04:05:49;10.40;99.90
48019;DHT22;33786;48.690;9.562;2023-10-31T04:08:16;10.40;99.90
48019;DHT22;33786;48.690;9.562;2023-10-31T04:10:43;10.40;99.90
48019;DHT22;33786;48.690;9.562;2023-10-31T04:13:10;10.30;99.90
48019;DHT22;33786;48.690;9.562;2023-10-31T04:15:36;10.30;99.90
48019;DHT22;33786;48.690;9.562;2023-10-31T04:18:03;10.30;99.90
48019;DHT22;33786;48.690;9.562;2023-10-31T04:20:30;10.20;99.90
48019;DHT22;33786;48.690;9.562;2023-10-31T04:22:57;10.10;99.90
48019;DHT22;33786;48.690;9.562;2023-10-31T04:25:24;10.10;99.90
48019;DHT22;33786;48.690;9.562;2023-10-31T04:27:51;10.00;99.90
48019;DHT22;33786;48.690;9.562;2023-10-31T04:30:17;10.00;99.90
48019;DHT22;33786;48.690;9.562;2023-10-31T04:32:44;9.90;99.90
48019;DHT22;33786;48.690;9.562;2023-10-31T04:35:12;10.00;99.90
48019;DHT22;33786;48.690;9.562;2023-10-31T04:37:39;9.90;99.90
48019;DHT22;33786;48.690;9.562;2023-10-31T04:40:06;9.90;99.90
48019;DHT22;33786;48.690;9.562;2023-10-31T04:42:32;9.80;99.90
48019;DHT22;33786;48.690;9.562;2023-10-31T04:45:02;9.80;99.90
48019;DHT22;33786;48.690;9.562;2023-10-31T04:47:29;9.70;99.90
48019;DHT22;33786;48.690;9.562;2023-10-31T04:49:56;9.80;99.90
48019;DHT22;33786;48.690;9.562;2023-10-31T04:52:23;9.70;99.90
48019;DHT22;33786;48.690;9.562;2023-10-31T04:54:52;9.60;99.90
48019;DHT22;33786;48.690;9.562;2023-10-31T04:57:19;9.60;99.90
48019;DHT22;33786;48.690;9.562;2023-10-31T04:59:45;9.60;99.90
48019;DHT22;33786;48.690;9.562;2023-10-31T05:02:12;9.60;99.90
48019;DHT22;33786;48.690;9.562;2023-10-31T05:04:39;9.60;99.90
48019;DHT22;33786;48.690;9.562;2023-10-31T05:07:07;9.60;99.90
48019;DHT22;33786;48.690;9.562;2023-10-31T05:09:35;9.60;99.90
48019;DHT22;33786;48.690;9.562;2023-10-31T05:12:02;9.60;99.90
48019;DHT22;33786;48.690;9.562;2023-10-31T05:14:29;9.60;99.90
48019;DHT22;33786;48.690;9.562;2023-10-31T05:16:56;9.60;99.90
48019;DHT22;33786;48.690;9.562;2023-10-31T05:19:22;9.60;99.90
48019;DHT22;33786;48.690;9.562;2023-10-31T05:21:49;9.60;99.90
48019;DHT22;33786;48.690;9.562;2023-10-31T05:24:16;9.60;99.90
48019;DHT22;33786;48.690;9.562;2023-10-31T05:26:43;9.60;99.90
48019;DHT22;33786;48.690;9.562;2023-10-31T05:29:10;9.60;99.90
48019;DHT22;33786;48.690;9.562;2023-10-31T05:31:37;9.60;99.90
48019;DHT22;33786;48.690;9.562;2023-10-31T05:34:04;9.60;99.90
48019;DHT22;33786;48.690;9.562;2023-10-31T05:36:31;9.60;99.90
48019;DHT22;33786;48.690;9.562;2023-10-31T05:38:57;9.60;99.90
48019;DHT22;33786;48.690;9.562;2023-10-31T05:41:24;9.60;99.90
48019;DHT22;33786;48.690;9.562;2023-10-31T05:43:51;9.60;99.90
48019;DHT22;33786;48.690;9.562;2023-10-31T05:46:18;9.60;99.90
48019;DHT22;33786;48.690;9.562;2023-10-31T05:48:45;9.70;99.90
48019;DHT22;33786;48.690;9.562;2023-10-31T05:53:40;9.60;99.90
48019;DHT22;33786;48.690;9.562;2023-10-31T05:56:08;9.70;99.90
48019;DHT22;33786;48.690;9.562;2023-10-31T05:58:36;9.70;99.90
48019;DHT22;33786;48.690;9.562;2023-10-31T06:01:03;9.70;99.90
48019;DHT22;33786;48.690;9.562;2023-10-31T06:03:30;9.80;99.90
48019;DHT22;33786;48.690;9.562;2023-10-31T06:05:56;9.90;99.90
48019;DHT22;33786;48.690;9.562;2023-10-31T06:08:23;9.90;99.90
48019;DHT22;33786;48.690;9.562;2023-10-31T06:10:50;9.80;99.90
48019;DHT22;33786;48.690;9.562;2023-10-31T06:13:17;9.90;99.90
48019;DHT22;33786;48.690;9.562;2023-10-31T06:15:44;9.70;99.90
48019;DHT22;33786;48.690;9.562;2023-10-31T06:18:11;9.70;99.90
48019;DHT22;33786;48.690;9.562;2023-10-31T06:20:37;9.70;99.90
48019;DHT22;33786;48.690;9.562;2023-10-31T06:23:06;9.70;99.90
48019;DHT22;33786;48.690;9.562;2023-10-31T06:25:32;9.80;99.90
48019;DHT22;33786;48.690;9.562;2023-10-31T06:27:59;9.80;99.90
48019;DHT22;33786;48.690;9.562;2023-10-31T06:30:26;9.80;99.90
48019;DHT22;33786;48.690;9.562;2023-10-31T06:32:54;9.80;99.90
48019;DHT22;33786;48.690;9.562;2023-10-31T06:35:24;9.90;99.90
48019;DHT22;33786;48.690;9.562;2023-10-31T06:37:52;9.90;99.90
48019;DHT22;33786;48.690;9.562;2023-10-31T06:40:19;9.90;99.90
48019;DHT22;33786;48.690;9.562;2023-10-31T06:42:45;9.90;99.90
48019;DHT22;33786;48.690;9.562;2023-10-31T06:45:12;9.90;99.90
48019;DHT22;33786;48.690;9.562;2023-10-31T06:47:39;9.90;99.90
48019;DHT22;33786;48.690;9.562;2023-10-31T06:50:07;9.90;99.90
48019;DHT22;33786;48.690;9.562;2023-10-31T06:52:34;9.90;99.90
48019;DHT22;33786;48.690;9.562;2023-10-31T06:55:01;9.90;99.90
48019;DHT22;33786;48.690;9.562;2023-10-31T06:57:27;9.90;99.90
48019;DHT22;33786;48.690;9.562;2023-10-31T06:59:54;9.80;99.90
48019;DHT22;33786;48.690;9.562;2023-10-31T07:02:21;9.90;99.90
48019;DHT22;33786;48.690;9.562;2023-10-31T07:04:48;10.00;99.90
48019;DHT22;33786;48.690;9.562;2023-10-31T07:07:16;9.90;99.90
48019;DHT22;33786;48.690;9.562;2023-10-31T07:09:43;10.00;99.90
48019;DHT22;33786;48.690;9.562;2023-10-31T07:12:09;10.00;99.90
48019;DHT22;33786;48.690;9.562;2023-10-31T07:14:36;10.00;99.90
48019;DHT22;33786;48.690;9.562;2023-10-31T07:17:03;10.00;99.90
48019;DHT22;33786;48.690;9.562;2023-10-31T07:19:30;10.10;99.90
48019;DHT22;33786;48.690;9.562;2023-10-31T07:21:57;10.20;99.90
48019;DHT22;33786;48.690;9.562;2023-10-31T07:24:24;10.30;99.90
48019;DHT22;33786;48.690;9.562;2023-10-31T07:26:53;10.10;99.90
48019;DHT22;33786;48.690;9.562;2023-10-31T07:29:20;10.20;99.90
48019;DHT22;33786;48.690;9.562;2023-10-31T07:31:47;10.20;99.90
48019;DHT22;33786;48.690;9.562;2023-10-31T07:34:14;10.20;99.90
48019;DHT22;33786;48.690;9.562;2023-10-31T07:36:42;10.40;99.90
48019;DHT22;33786;48.690;9.562;2023-10-31T07:39:09;10.30;99.90
48019;DHT22;33786;48.690;9.562;2023-10-31T07:41:36;10.40;99.90
48019;DHT22;33786;48.690;9.562;2023-10-31T07:44:02;10.40;99.90
48019;DHT22;33786;48.690;9.562;2023-10-31T07:46:29;10.40;99.90
48019;DHT22;33786;48.690;9.562;2023-10-31T07:48:56;10.40;99.90
48019;DHT22;33786;48.690;9.562;2023-10-31T07:51:23;10.50;99.90
48019;DHT22;33786;48.690;9.562;2023-10-31T07:53:50;10.60;99.90
48019;DHT22;33786;48.690;9.562;2023-10-31T07:56:17;10.60;99.90
48019;DHT22;33786;48.690;9.562;2023-10-31T07:58:45;10.50;99.90
48019;DHT22;33786;48.690;9.562;2023-10-31T08:01:12;10.60;99.90
48019;DHT22;33786;48.690;9.562;2023-10-31T08:03:40;10.60;99.90
48019;DHT22;33786;48.690;9.562;2023-10-31T08:06:07;10.60;99.90
48019;DHT22;33786;48.690;9.562;2023-10-31T08:08:34;10.50;99.90
48019;DHT22;33786;48.690;9.562;2023-10-31T08:11:00;10.60;99.90
48019;DHT22;33786;48.690;9.562;2023-10-31T08:13:27;10.60;99.90
48019;DHT22;33786;48.690;9.562;2023-10-31T08:15:54;10.70;99.90
48019;DHT22;33786;48.690;9.562;2023-10-31T08:18:21;10.70;99.90
48019;DHT22;33786;48.690;9.562;2023-10-31T08:20:48;10.80;99.90
48019;DHT22;33786;48.690;9.562;2023-10-31T08:23:17;10.90;99.90
48019;DHT22;33786;48.690;9.562;2023-10-31T08:25:44;11.20;99.90
48019;DHT22;33786;48.690;9.562;2023-10-31T08:28:11;11.50;99.90
48019;DHT22;33786;48.690;9.562;2023-10-31T08:30:38;11.40;99.90
48019;DHT22;33786;48.690;9.562;2023-10-31T08:33:05;11.40;99.90
48019;DHT22;33786;48.690;9.562;2023-10-31T08:35:35;11.30;99.90
48019;DHT22;33786;48.690;9.562;2023-10-31T08:38:02;11.50;99.90
48019;DHT22;33786;48.690;9.562;2023-10-31T08:40:29;11.50;99.90
48019;DHT22;33786;48.690;9.562;2023-10-31T08:42:55;11.70;99.90
48019;DHT22;33786;48.690;9.562;2023-10-31T08:45:22;11.80;99.90
48019;DHT22;33786;48.690;9.562;2023-10-31T08:47:51;11.90;99.90
48019;DHT22;33786;48.690;9.562;2023-10-31T08:50:18;12.00;99.90
48019;DHT22;33786;48.690;9.562;2023-10-31T08:52:45;12.10;99.90
48019;DHT22;33786;48.690;9.562;2023-10-31T08:55:12;12.50;99.90
48019;DHT22;33786;48.690;9.562;2023-10-31T08:57:39;13.00;99.90
48019;DHT22;33786;48.690;9.562;2023-10-31T09:00:06;13.30;99.90
48019;DHT22;33786;48.690;9.562;2023-10-31T09:02:33;13.80;99.90
48019;DHT22;33786;48.690;9.562;2023-10-31T09:05:00;14.60;99.90
48019;DHT22;33786;48.690;9.562;2023-10-31T09:07:27;14.70;99.90
48019;DHT22;33786;48.690;9.562;2023-10-31T09:09:54;14.70;99.90
48019;DHT22;33786;48.690;9.562;2023-10-31T09:12:20;15.00;99.90
48019;DHT22;33786;48.690;9.562;2023-10-31T09:14:47;15.30;99.90
48019;DHT22;33786;48.690;9.562;2023-10-31T09:17:14;15.50;99.90
48019;DHT22;33786;48.690;9.562;2023-10-31T09:19:41;16.00;99.90
48019;DHT22;33786;48.690;9.562;2023-10-31T09:22:08;16.40;99.90
48019;DHT22;33786;48.690;9.562;2023-10-31T09:24:35;16.60;99.60
48019;DHT22;33786;48.690;9.562;2023-10-31T09:27:01;16.30;99.90
48019;DHT22;33786;48.690;9.562;2023-10-31T09:29:28;17.00;99.60
48019;DHT22;33786;48.690;9.562;2023-10-31T09:31:56;17.60;98.40
48019;DHT22;33786;48.690;9.562;2023-10-31T09:34:23;18.40;97.50
48019;DHT22;33786;48.690;9.562;2023-10-31T09:36:49;18.30;96.70
48019;DHT22;33786;48.690;9.562;2023-10-31T09:39:16;17.80;96.70
48019;DHT22;33786;48.690;9.562;2023-10-31T09:41:43;17.90;97.50
48019;DHT22;33786;48.690;9.562;2023-10-31T09:44:09;17.60;96.70
48019;DHT22;33786;48.690;9.562;2023-10-31T09:46:36;17.50;97.40
48019;DHT22;33786;48.690;9.562;2023-10-31T09:49:03;18.60;96.20
48019;DHT22;33786;48.690;9.562;2023-10-31T09:51:31;19.00;94.90
48019;DHT22;33786;48.690;9.562;2023-10-31T09:53:58;19.10;94.70
48019;DHT22;33786;48.690;9.562;2023-10-31T09:56:25;19.10;94.60
48019;DHT22;33786;48.690;9.562;2023-10-31T09:58:53;18.80;94.30
48019;DHT22;33786;48.690;9.562;2023-10-31T10:01:20;18.90;94.10
48019;DHT22;33786;48.690;9.562;2023-10-31T10:03:47;18.80;94.50
48019;DHT22;33786;48.690;9.562;2023-10-31T10:06:14;18.60;95.20
48019;DHT22;33786;48.690;9.562;2023-10-31T10:08:41;18.20;94.80
48019;DHT22;33786;48.690;9.562;2023-10-31T10:11:08;17.40;95.80
48019;DHT22;33786;48.690;9.562;2023-10-31T10:13:35;16.90;97.00
48019;DHT22;33786;48.690;9.562;2023-10-31T10:16:02;17.30;96.80
48019;DHT22;33786;48.690;9.562;2023-10-31T10:18:29;17.40;96.30
48019;DHT22;33786;48.690;9.562;2023-10-31T10:20:58;17.10;96.60
48019;DHT22;33786;48.690;9.562;2023-10-31T10:23:25;16.60;96.60
48019;DHT22;33786;48.690;9.562;2023-10-31T10:25:52;16.30;97.50
48019;DHT22;33786;48.690;9.562;2023-10-31T10:28:19;16.10;97.40
48019;DHT22;33786;48.690;9.562;2023-10-31T10:30:47;16.00;98.20
48019;DHT22;33786;48.690;9.562;2023-10-31T10:33:14;15.50;99.10
48019;DHT22;33786;48.690;9.562;2023-10-31T10:35:42;15.20;98.90
48019;DHT22;33786;48.690;9.562;2023-10-31T10:38:13;15.10;99.10
48019;DHT22;33786;48.690;9.562;2023-10-31T10:40:47;14.80;99.90
48019;DHT22;33786;48.690;9.562;2023-10-31T10:45:46;14.10;99.90
48019;DHT22;33786;48.690;9.562;2023-10-31T10:48:17;13.90;99.90
48019;DHT22;33786;48.690;9.562;2023-10-31T10:50:46;13.60;99.90
48019;DHT22;33786;48.690;9.562;2023-10-31T10:53:22;13.70;99.90
48019;DHT22;33786;48.690;9.562;2023-10-31T10:55:55;13.70;99.90
48019;DHT22;33786;48.690;9.562;2023-10-31T10:58:26;13.80;99.90
48019;DHT22;33786;48.690;9.562;2023-10-31T11:00:55;13.70;99.90
48019;DHT22;33786;48.690;9.562;2023-10-31T11:03:22;13.70;99.90
48019;DHT22;33786;48.690;9.562;2023-10-31T11:05:51;13.90;99.90
48019;DHT22;33786;48.690;9.562;2023-10-31T11:08:19;13.80;99.90
48019;DHT22;33786;48.690;9.562;2023-10-31T11:10:47;13.80;99.90
48019;DHT22;33786;48.690;9.562;2023-10-31T11:13:15;13.90;99.90
48019;DHT22;33786;48.690;9.562;2023-10-31T11:15:42;13.70;99.90
48019;DHT22;33786;48.690;9.562;2023-10-31T11:18:10;13.40;99.90
48019;DHT22;33786;48.690;9.562;2023-10-31T11:20:37;13.30;99.90
48019;DHT22;33786;48.690;9.562;2023-10-31T11:23:06;13.40;99.90
48019;DHT22;33786;48.690;9.562;2023-10-31T11:25:33;13.20;99.90
48019;DHT22;33786;48.690;9.562;2023-10-31T11:28:13;13.20;99.90
48019;DHT22;33786;48.690;9.562;2023-10-31T11:30:41;13.20;99.90
48019;DHT22;33786;48.690;9.562;2023-10-31T11:33:12;13.40;99.90
48019;DHT22;33786;48.690;9.562;2023-10-31T11:35:40;13.50;99.90
48019;DHT22;33786;48.690;9.562;2023-10-31T11:38:08;13.60;99.90
48019;DHT22;33786;48.690;9.562;2023-10-31T11:40:57;13.70;99.90
48019;DHT22;33786;48.690;9.562;2023-10-31T11:43:25;13.90;99.90
48019;DHT22;33786;48.690;9.562;2023-10-31T11:45:52;14.00;99.90
48019;DHT22;33786;48.690;9.562;2023-10-31T11:48:44;14.20;99.90
48019;DHT22;33786;48.690;9.562;2023-10-31T11:51:08;14.00;99.90
48019;DHT22;33786;48.690;9.562;2023-10-31T11:53:38;14.10;99.90
48019;DHT22;33786;48.690;9.562;2023-10-31T11:56:05;14.10;99.90
48019;DHT22;33786;48.690;9.562;2023-10-31T11:58:33;13.90;99.90
48019;DHT22;33786;48.690;9.562;2023-10-31T12:01:01;13.80;99.90
48019;DHT22;33786;48.690;9.562;2023-10-31T12:03:36;13.80;99.90
48019;DHT22;33786;48.690;9.562;2023-10-31T12:06:03;13.80;99.90
48019;DHT22;33786;48.690;9.562;2023-10-31T12:08:38;14.00;99.90
48019;DHT22;33786;48.690;9.562;2023-10-31T12:11:06;14.20;99.90
48019;DHT22;33786;48.690;9.562;2023-10-31T12:13:34;14.40;99.90
48019;DHT22;33786;48.690;9.562;2023-10-31T12:16:01;14.50;99.90
48019;DHT22;33786;48.690;9.562;2023-10-31T12:18:28;14.70;99.90
48019;DHT22;33786;48.690;9.562;2023-10-31T12:20:55;14.70;99.90
48019;DHT22;33786;48.690;9.562;2023-10-31T12:23:21;14.80;99.90
48019;DHT22;33786;48.690;9.562;2023-10-31T12:25:51;14.80;99.90
48019;DHT22;33786;48.690;9.562;2023-10-31T12:28:19;14.70;99.90
48019;DHT22;33786;48.690;9.562;2023-10-31T12:30:46;14.60;99.90
48019;DHT22;33786;48.690;9.562;2023-10-31T12:33:13;14.50;99.90
48019;DHT22;33786;48.690;9.562;2023-10-31T12:35:41;14.20;99.90
48019;DHT22;33786;48.690;9.562;2023-10-31T12:38:12;13.90;99.90
48019;DHT22;33786;48.690;9.562;2023-10-31T12:40:42;13.70;99.90
48019;DHT22;33786;48.690;9.562;2023-10-31T12:43:09;13.70;99.90
48019;DHT22;33786;48.690;9.562;2023-10-31T12:45:36;13.70;99.90
48019;DHT22;33786;48.690;9.562;2023-10-31T12:48:07;13.70;99.90
48019;DHT22;33786;48.690;9.562;2023-10-31T12:50:36;13.80;99.90
48019;DHT22;33786;48.690;9.562;2023-10-31T12:53:04;13.90;99.90
48019;DHT22;33786;48.690;9.562;2023-10-31T12:55:39;13.90;99.90
48019;DHT22;33786;48.690;9.562;2023-10-31T12:58:05;13.90;99.90
48019;DHT22;33786;48.690;9.562;2023-10-31T13:00:33;13.90;99.90
48019;DHT22;33786;48.690;9.562;2023-10-31T13:05:27;13.70;99.90
48019;DHT22;33786;48.690;9.562;2023-10-31T13:07:55;13.60;99.90
48019;DHT22;33786;48.690;9.562;2023-10-31T13:10:24;13.50;99.90
48019;DHT22;33786;48.690;9.562;2023-10-31T13:12:51;13.40;99.90
48019;DHT22;33786;48.690;9.562;2023-10-31T13:15:19;13.30;99.90
48019;DHT22;33786;48.690;9.562;2023-10-31T13:17:47;13.10;99.90
48019;DHT22;33786;48.690;9.562;2023-10-31T13:20:14;13.40;99.90
48019;DHT22;33786;48.690;9.562;2023-10-31T13:22:41;13.50;99.90
48019;DHT22;33786;48.690;9.562;2023-10-31T13:25:10;13.70;99.90
48019;DHT22;33786;48.690;9.562;2023-10-31T13:27:38;14.00;99.90
48019;DHT22;33786;48.690;9.562;2023-10-31T13:30:06;14.20;99.90
48019;DHT22;33786;48.690;9.562;2023-10-31T13:32:33;14.40;99.90
48019;DHT22;33786;48.690;9.562;2023-10-31T13:35:00;14.50;99.90
48019;DHT22;33786;48.690;9.562;2023-10-31T13:37:27;14.40;99.90
48019;DHT22;33786;48.690;9.562;2023-10-31T13:39:53;14.20;99.90
48019;DHT22;33786;48.690;9.562;2023-10-31T13:42:20;14.00;99.90
48019;DHT22;33786;48.690;9.562;2023-10-31T13:44:47;13.80;99.90
48019;DHT22;33786;48.690;9.562;2023-10-31T13:47:14;13.70;99.90
48019;DHT22;33786;48.690;9.562;2023-10-31T13:49:41;13.70;99.90
48019;DHT22;33786;48.690;9.562;2023-10-31T13:52:08;13.60;99.90
48019;DHT22;33786;48.690;9.562;2023-10-31T13:54:35;13.50;99.90
48019;DHT22;33786;48.690;9.562;2023-10-31T13:57:01;13.40;99.90
48019;DHT22;33786;48.690;9.562;2023-10-31T13:59:28;13.40;99.90
48019;DHT22;33786;48.690;9.562;2023-10-31T14:01:55;13.40;99.90
48019;DHT22;33786;48.690;9.562;2023-10-31T14:04:22;13.40;99.90
48019;DHT22;33786;48.690;9.562;2023-10-31T14:06:49;13.40;99.90
48019;DHT22;33786;48.690;9.562;2023-10-31T14:09:19;13.30;99.90
48019;DHT22;33786;48.690;9.562;2023-10-31T14:11:47;13.40;99.90
48019;DHT22;33786;48.690;9.562;2023-10-31T14:14:14;13.40;99.90
48019;DHT22;33786;48.690;9.562;2023-10-31T14:16:42;13.50;99.90
48019;DHT22;33786;48.690;9.562;2023-10-31T14:19:12;13.50;99.90
48019;DHT22;33786;48.690;9.562;2023-10-31T14:21:39;13.50;99.90
48019;DHT22;33786;48.690;9.562;2023-10-31T14:24:06;13.50;99.90
48019;DHT22;33786;48.690;9.562;2023-10-31T14:26:38;13.50;99.90
48019;DHT22;33786;48.690;9.562;2023-10-31T14:29:07;13.40;99.90
48019;DHT22;33786;48.690;9.562;2023-10-31T14:31:37;13.40;99.90
48019;DHT22;33786;48.690;9.562;2023-10-31T14:34:04;13.50;99.90
48019;DHT22;33786;48.690;9.562;2023-10-31T14:36:32;13.60;99.90
48019;DHT22;33786;48.690;9.562;2023-10-31T14:38:59;13.60;99.90
48019;DHT22;33786;48.690;9.562;2023-10-31T14:41:25;13.60;99.90
48019;DHT22;33786;48.690;9.562;2023-10-31T14:43:52;13.70;99.90
48019;DHT22;33786;48.690;9.562;2023-10-31T14:46:19;13.70;99.90
48019;DHT22;33786;48.690;9.562;2023-10-31T14:48:47;13.80;99.90
48019;DHT22;33786;48.690;9.562;2023-10-31T14:51:14;13.70;99.90
48019;DHT22;33786;48.690;9.562;2023-10-31T14:53:41;13.70;99.90
48019;DHT22;33786;48.690;9.562;2023-10-31T14:56:08;13.50;99.90
48019;DHT22;33786;48.690;9.562;2023-10-31T14:58:35;13.40;99.90
48019;DHT22;33786;48.690;9.562;2023-10-31T15:01:02;13.30;99.90
48019;DHT22;33786;48.690;9.562;2023-10-31T15:03:31;13.20;99.90
48019;DHT22;33786;48.690;9.562;2023-10-31T15:06:01;13.10;99.90
48019;DHT22;33786;48.690;9.562;2023-10-31T15:08:27;13.10;99.90
48019;DHT22;33786;48.690;9.562;2023-10-31T15:10:54;12.90;99.90
48019;DHT22;33786;48.690;9.562;2023-10-31T15:13:22;13.00;99.90
48019;DHT22;33786;48.690;9.562;2023-10-31T15:15:49;13.00;99.90
48019;DHT22;33786;48.690;9.562;2023-10-31T15:18:16;12.90;99.90
48019;DHT22;33786;48.690;9.562;2023-10-31T15:20:43;12.90;99.90
48019;DHT22;33786;48.690;9.562;2023-10-31T15:23:10;12.90;99.90
48019;DHT22;33786;48.690;9.562;2023-10-31T15:25:40;12.80;99.90
48019;DHT22;33786;48.690;9.562;2023-10-31T15:28:07;12.70;99.90
48019;DHT22;33786;48.690;9.562;2023-10-31T15:30:34;12.60;99.90
48019;DHT22;33786;48.690;9.562;2023-10-31T15:33:01;12.60;99.90
48019;DHT22;33786;48.690;9.562;2023-10-31T15:35:28;12.50;99.90
48019;DHT22;33786;48.690;9.562;2023-10-31T15:37:55;12.40;99.90
48019;DHT22;33786;48.690;9.562;2023-10-31T15:40:21;12.40;99.90